createdAt,value
2018-04-17T00:02:00.000Z,98992
2018-04-17T00:07:00.000Z,98988
2018-04-17T00:12:00.000Z,98994
2018-04-17T00:17:00.000Z,99011
2018-04-17T00:22:00.000Z,99007
2018-04-17T00:27:00.000Z,99012
2018-04-17T00:32:00.000Z,99014
2018-04-17T00:37:00.000Z,99033
2018-04-17T00:42:00.000Z,99025
2018-04-17T00:47:00.000Z,99030
2018-04-17T00:52:00.000Z,99040
2018-04-17T00:57:00.000Z,99046
2018-04-17T01:02:00.000Z,99046
2018-04-17T01:07:00.000Z,99055
2018-04-17T01:12:00.000Z,99062
2018-04-17T01:17:00.000Z,99058
2018-04-17T01:22:00.000Z,99058
2018-04-17T01:27:00.000Z,99071
2018-04-17T01:32:00.000Z,99062
2018-04-17T01:37:00.000Z,99069
2018-04-17T01:42:00.000Z,99074
2018-04-17T01:47:00.000Z,99074
2018-04-17T01:52:00.000Z,99084
2018-04-17T01:57:00.000Z,99090
2018-04-17T02:02:00.000Z,99105
2018-04-17T02:07:00.000Z,99105
2018-04-17T02:12:00.000Z,99108
2018-04-17T02:17:00.000Z,99114
2018-04-17T02:22:00.000Z,99113
2018-04-17T02:27:00.000Z,99106
2018-04-17T02:32:00.000Z,99111
2018-04-17T02:37:00.000Z,99112
2018-04-17T02:42:00.000Z,99108
2018-04-17T02:47:00.000Z,99111
2018-04-17T02:52:00.000Z,99116
2018-04-17T02:57:00.000Z,99122
2018-04-17T03:02:00.000Z,99106
2018-04-17T03:07:00.000Z,99107
2018-04-17T03:12:00.000Z,99108
2018-04-17T03:17:00.000Z,99109
2018-04-17T03:22:00.000Z,99122
2018-04-17T03:27:00.000Z,99122
2018-04-17T03:32:00.000Z,99121
2018-04-17T03:37:00.000Z,99128
2018-04-17T03:42:00.000Z,99120
2018-04-17T03:47:00.000Z,99132
2018-04-17T03:52:00.000Z,99156
2018-04-17T03:57:00.000Z,99160
2018-04-17T04:02:00.000Z,99174
2018-04-17T04:07:00.000Z,99184
2018-04-17T04:12:00.000Z,99192
2018-04-17T04:17:00.000Z,99196
2018-04-17T04:22:00.000Z,99201
2018-04-17T04:27:00.000Z,99212
2018-04-17T04:32:00.000Z,99208
2018-04-17T04:37:00.000Z,99209
2018-04-17T04:42:00.000Z,99216
2018-04-17T04:47:00.000Z,99219
2018-04-17T04:52:00.000Z,99227
2018-04-17T04:57:00.000Z,99221
2018-04-17T05:02:00.000Z,99224
2018-04-17T05:07:00.000Z,99246
2018-04-17T05:12:00.000Z,99244
2018-04-17T05:17:00.000Z,99251
2018-04-17T05:22:00.000Z,99252
2018-04-17T05:27:00.000Z,99257
2018-04-17T05:32:00.000Z,99267
2018-04-17T05:37:00.000Z,99277
2018-04-17T05:42:00.000Z,99285
2018-04-17T05:48:00.000Z,99284
2018-04-17T05:53:00.000Z,99300
2018-04-17T05:58:00.000Z,99304
2018-04-17T06:03:00.000Z,99306
2018-04-17T06:08:00.000Z,99308
2018-04-17T06:13:00.000Z,99313
2018-04-17T06:18:00.000Z,99330
2018-04-17T06:23:00.000Z,99317
2018-04-17T06:28:00.000Z,99333
2018-04-17T06:33:00.000Z,99335
2018-04-17T06:38:00.000Z,99335
2018-04-17T06:43:00.000Z,99341
2018-04-17T06:48:00.000Z,99331
2018-04-17T06:53:00.000Z,99335
2018-04-17T06:58:00.000Z,99336
2018-04-17T07:03:00.000Z,99349
2018-04-17T07:08:00.000Z,99347
2018-04-17T07:13:00.000Z,99363
2018-04-17T07:18:00.000Z,99367
2018-04-17T07:23:00.000Z,99376
2018-04-17T07:28:00.000Z,99377
2018-04-17T07:33:00.000Z,99376
2018-04-17T07:38:00.000Z,99402
2018-04-17T07:43:00.000Z,99406
2018-04-17T07:48:00.000Z,99408
2018-04-17T07:53:00.000Z,99427
2018-04-17T07:58:00.000Z,99425
2018-04-17T08:03:00.000Z,99425
2018-04-17T08:08:00.000Z,99431
2018-04-17T08:13:00.000Z,99455
2018-04-17T08:18:00.000Z,99457
2018-04-17T08:23:00.000Z,99446
2018-04-17T08:28:00.000Z,99459
2018-04-17T08:33:00.000Z,99462
2018-04-17T08:38:00.000Z,99474
2018-04-17T08:43:00.000Z,99477
2018-04-17T08:48:00.000Z,99476
2018-04-17T08:53:00.000Z,99468
2018-04-17T08:58:00.000Z,99473
2018-04-17T09:03:00.000Z,99478
2018-04-17T09:08:00.000Z,99480
2018-04-17T09:13:00.000Z,99489
2018-04-17T09:18:00.000Z,99485
2018-04-17T09:23:00.000Z,99503
2018-04-17T09:28:00.000Z,99510
2018-04-17T09:33:00.000Z,99492
2018-04-17T09:38:00.000Z,99492
2018-04-17T09:43:00.000Z,99511
2018-04-17T09:48:00.000Z,99508
2018-04-17T09:53:00.000Z,99493
2018-04-17T09:58:00.000Z,99502
2018-04-17T10:03:00.000Z,99498
2018-04-17T10:08:00.000Z,99504
2018-04-17T10:13:00.000Z,99499
2018-04-17T10:18:00.000Z,99489
2018-04-17T10:23:00.000Z,99498
2018-04-17T10:28:00.000Z,99497
2018-04-17T10:33:00.000Z,99490
2018-04-17T10:38:00.000Z,99488
2018-04-17T10:43:00.000Z,99498
2018-04-17T10:48:00.000Z,99494
2018-04-17T10:53:00.000Z,99474
2018-04-17T10:58:00.000Z,99485
2018-04-17T11:03:00.000Z,99476
2018-04-17T11:08:00.000Z,99482
2018-04-17T11:13:00.000Z,99489
2018-04-17T11:18:00.000Z,99479
2018-04-17T11:23:00.000Z,99480
2018-04-17T11:28:00.000Z,99489
2018-04-17T11:33:00.000Z,99487
2018-04-17T11:38:00.000Z,99496
2018-04-17T11:43:00.000Z,99496
2018-04-17T11:49:00.000Z,99506
2018-04-17T11:54:00.000Z,99505
2018-04-17T11:59:00.000Z,99513
2018-04-17T12:04:00.000Z,99499
2018-04-17T12:09:00.000Z,99489
2018-04-17T12:14:00.000Z,99493
2018-04-17T12:19:00.000Z,99504
2018-04-17T12:24:00.000Z,99489
2018-04-17T12:29:00.000Z,99492
2018-04-17T12:34:00.000Z,99496
2018-04-17T12:39:00.000Z,99498
2018-04-17T12:44:00.000Z,99493
2018-04-17T12:49:00.000Z,99499
2018-04-17T12:54:00.000Z,99490
2018-04-17T12:59:00.000Z,99493
2018-04-17T13:04:00.000Z,99507
2018-04-17T13:09:00.000Z,99489
2018-04-17T13:14:00.000Z,99494
2018-04-17T13:19:00.000Z,99498
2018-04-17T13:24:00.000Z,99495
2018-04-17T13:29:00.000Z,99502
2018-04-17T13:34:00.000Z,99490
2018-04-17T13:39:00.000Z,99495
2018-04-17T13:44:00.000Z,99498
2018-04-17T13:49:00.000Z,99500
2018-04-17T13:54:00.000Z,99495
2018-04-17T13:59:00.000Z,99493
2018-04-17T14:04:00.000Z,99488
2018-04-17T14:09:00.000Z,99497
2018-04-17T14:14:00.000Z,99497
2018-04-17T14:19:00.000Z,99501
2018-04-17T14:24:00.000Z,99492
2018-04-17T14:29:00.000Z,99492
2018-04-17T14:34:00.000Z,99487
2018-04-17T14:39:00.000Z,99488
2018-04-17T14:44:00.000Z,99494
2018-04-17T14:49:00.000Z,99493
2018-04-17T14:54:00.000Z,99503
2018-04-17T14:59:00.000Z,99491
2018-04-17T15:04:00.000Z,99497
2018-04-17T15:09:00.000Z,99505
2018-04-17T15:14:00.000Z,99497
2018-04-17T15:19:00.000Z,99506
2018-04-17T15:24:00.000Z,99507
2018-04-17T15:29:00.000Z,99512
2018-04-17T15:34:00.000Z,99510
2018-04-17T15:39:00.000Z,99510
2018-04-17T15:44:00.000Z,99517
2018-04-17T15:49:00.000Z,99513
2018-04-17T15:54:00.000Z,99523
2018-04-17T15:59:00.000Z,99524
2018-04-17T16:04:00.000Z,99527
2018-04-17T16:09:00.000Z,99528
2018-04-17T16:14:00.000Z,99526
2018-04-17T16:19:00.000Z,99526
2018-04-17T16:24:00.000Z,99530
2018-04-17T16:29:00.000Z,99544
2018-04-17T16:34:00.000Z,99539
2018-04-17T16:39:00.000Z,99546
2018-04-17T16:44:00.000Z,99541
2018-04-17T16:49:00.000Z,99539
2018-04-17T16:54:00.000Z,99546
2018-04-17T16:59:00.000Z,99543
2018-04-17T17:04:00.000Z,99566
2018-04-17T17:09:00.000Z,99560
2018-04-17T17:14:00.000Z,99569
2018-04-17T17:19:00.000Z,99578
2018-04-17T17:24:00.000Z,99573
2018-04-17T17:29:00.000Z,99592
2018-04-17T17:35:00.000Z,99601
2018-04-17T17:40:00.000Z,99608
2018-04-17T17:45:00.000Z,99621
2018-04-17T17:50:00.000Z,99628
2018-04-17T17:55:00.000Z,99631
2018-04-17T18:00:00.000Z,99642
2018-04-17T18:05:00.000Z,99645
2018-04-17T18:10:00.000Z,99650
2018-04-17T18:15:00.000Z,99665
2018-04-17T18:20:00.000Z,99669
2018-04-17T18:25:00.000Z,99679
2018-04-17T18:30:00.000Z,99692
2018-04-17T18:35:00.000Z,99714
2018-04-17T18:40:00.000Z,99716
2018-04-17T18:45:00.000Z,99731
2018-04-17T18:50:00.000Z,99744
2018-04-17T18:55:00.000Z,99744
2018-04-17T19:00:00.000Z,99752
2018-04-17T19:05:00.000Z,99762
2018-04-17T19:10:00.000Z,99775
2018-04-17T19:15:00.000Z,99782
2018-04-17T19:20:00.000Z,99790
2018-04-17T19:25:00.000Z,99793
2018-04-17T19:30:00.000Z,99807
2018-04-17T19:35:00.000Z,99808
2018-04-17T19:40:00.000Z,99818
2018-04-17T19:45:00.000Z,99812
2018-04-17T19:50:00.000Z,99823
2018-04-17T19:55:00.000Z,99831
2018-04-17T20:00:00.000Z,99830
2018-04-17T20:05:00.000Z,99838
2018-04-17T20:10:00.000Z,99856
2018-04-17T20:15:00.000Z,99858
2018-04-17T20:20:00.000Z,99862
2018-04-17T20:25:00.000Z,99872
2018-04-17T20:30:00.000Z,99871
2018-04-17T20:35:00.000Z,99877
2018-04-17T20:40:00.000Z,99882
2018-04-17T20:45:00.000Z,99886
2018-04-17T20:50:00.000Z,99892
2018-04-17T20:55:00.000Z,99893
2018-04-17T21:00:00.000Z,99888
2018-04-17T21:05:00.000Z,99898
2018-04-17T21:10:00.000Z,99908
2018-04-17T21:15:00.000Z,99905
2018-04-17T21:20:00.000Z,99915
2018-04-17T21:25:00.000Z,99920
2018-04-17T21:30:00.000Z,99932
2018-04-17T21:35:00.000Z,99935
2018-04-17T21:40:00.000Z,99940
2018-04-17T21:45:00.000Z,99948
2018-04-17T21:50:00.000Z,99963
2018-04-17T21:55:00.000Z,99958
2018-04-17T22:00:00.000Z,99973
2018-04-17T22:05:00.000Z,99960
2018-04-17T22:10:00.000Z,99974
2018-04-17T22:15:00.000Z,99980
2018-04-17T22:20:00.000Z,99989
2018-04-17T22:25:00.000Z,99988
2018-04-17T22:30:00.000Z,99980
2018-04-17T22:35:00.000Z,99982
2018-04-17T22:40:00.000Z,99991
2018-04-17T22:45:00.000Z,99996
2018-04-17T22:50:00.000Z,99992
2018-04-17T22:55:00.000Z,99999
2018-04-17T23:00:00.000Z,99998
2018-04-17T23:05:00.000Z,100011
2018-04-17T23:10:00.000Z,100010
2018-04-17T23:15:00.000Z,100011
2018-04-17T23:20:00.000Z,100011
2018-04-17T23:25:00.000Z,100028
2018-04-17T23:30:00.000Z,100023
2018-04-17T23:35:00.000Z,100016
2018-04-17T23:40:00.000Z,100009
2018-04-17T23:46:00.000Z,100022
2018-04-17T23:51:00.000Z,100012
2018-04-17T23:56:00.000Z,100023
